sensor_id;sensor_type;location;lat;lon;timestamp;P1;durP1;ratioP1;P2;durP2;ratioP2
43118;SDS011;28729;49.838;8.650;2024-03-06T00:00:02;8.55;;;4.15;;
43118;SDS011;28729;49.838;8.650;2024-03-06T00:04:10;10.15;;;5.43;;
43118;SDS011;28729;49.838;8.650;2024-03-06T00:08:18;12.33;;;4.87;;
43118;SDS011;28729;49.838;8.650;2024-03-06T00:12:24;9.27;;;4.47;;
43118;SDS011;28729;49.838;8.650;2024-03-06T00:16:27;10.93;;;4.57;;
43118;SDS011;28729;49.838;8.650;2024-03-06T00:20:34;8.40;;;4.45;;
43118;SDS011;28729;49.838;8.650;2024-03-06T00:24:45;12.80;;;6.65;;
43118;SDS011;28729;49.838;8.650;2024-03-06T00:28:52;10.88;;;5.72;;
43118;SDS011;28729;49.838;8.650;2024-03-06T00:32:58;13.35;;;5.50;;
43118;SDS011;28729;49.838;8.650;2024-03-06T00:37:00;14.30;;;5.45;;
43118;SDS011;28729;49.838;8.650;2024-03-06T00:41:05;12.07;;;5.53;;
43118;SDS011;28729;49.838;8.650;2024-03-06T00:45:07;13.93;;;5.82;;
43118;SDS011;28729;49.838;8.650;2024-03-06T00:49:11;13.13;;;5.70;;
43118;SDS011;28729;49.838;8.650;2024-03-06T00:53:13;11.77;;;5.30;;
43118;SDS011;28729;49.838;8.650;2024-03-06T00:57:19;10.23;;;5.28;;
43118;SDS011;28729;49.838;8.650;2024-03-06T01:01:22;9.85;;;5.03;;
43118;SDS011;28729;49.838;8.650;2024-03-06T01:05:27;9.30;;;4.78;;
43118;SDS011;28729;49.838;8.650;2024-03-06T01:09:29;13.25;;;5.22;;
43118;SDS011;28729;49.838;8.650;2024-03-06T01:13:35;11.27;;;5.15;;
43118;SDS011;28729;49.838;8.650;2024-03-06T01:17:38;10.48;;;4.75;;
43118;SDS011;28729;49.838;8.650;2024-03-06T01:21:40;11.85;;;5.97;;
43118;SDS011;28729;49.838;8.650;2024-03-06T01:29:48;9.25;;;4.97;;
43118;SDS011;28729;49.838;8.650;2024-03-06T01:33:51;10.48;;;5.53;;
43118;SDS011;28729;49.838;8.650;2024-03-06T01:37:54;13.65;;;4.95;;
43118;SDS011;28729;49.838;8.650;2024-03-06T01:46:01;13.48;;;5.45;;
43118;SDS011;28729;49.838;8.650;2024-03-06T01:54:11;11.35;;;4.75;;
43118;SDS011;28729;49.838;8.650;2024-03-06T01:58:14;12.68;;;5.35;;
43118;SDS011;28729;49.838;8.650;2024-03-06T02:02:16;10.80;;;4.72;;
43118;SDS011;28729;49.838;8.650;2024-03-06T02:06:18;13.33;;;5.13;;
43118;SDS011;28729;49.838;8.650;2024-03-06T02:10:23;10.50;;;5.43;;
43118;SDS011;28729;49.838;8.650;2024-03-06T02:14:25;10.45;;;4.97;;
43118;SDS011;28729;49.838;8.650;2024-03-06T02:18:36;9.80;;;5.30;;
43118;SDS011;28729;49.838;8.650;2024-03-06T02:22:39;10.63;;;5.35;;
43118;SDS011;28729;49.838;8.650;2024-03-06T02:26:41;11.50;;;6.40;;
43118;SDS011;28729;49.838;8.650;2024-03-06T02:30:43;16.38;;;6.18;;
43118;SDS011;28729;49.838;8.650;2024-03-06T02:34:51;16.70;;;6.18;;
43118;SDS011;28729;49.838;8.650;2024-03-06T02:38:53;11.90;;;5.73;;
43118;SDS011;28729;49.838;8.650;2024-03-06T02:42:54;13.25;;;4.47;;
43118;SDS011;28729;49.838;8.650;2024-03-06T02:46:56;13.23;;;6.18;;
43118;SDS011;28729;49.838;8.650;2024-03-06T02:50:59;12.27;;;6.37;;
43118;SDS011;28729;49.838;8.650;2024-03-06T02:55:01;14.00;;;6.55;;
43118;SDS011;28729;49.838;8.650;2024-03-06T02:59:03;13.57;;;6.57;;
43118;SDS011;28729;49.838;8.650;2024-03-06T03:03:08;13.68;;;6.70;;
43118;SDS011;28729;49.838;8.650;2024-03-06T03:07:16;14.25;;;7.57;;
43118;SDS011;28729;49.838;8.650;2024-03-06T03:11:18;13.82;;;6.68;;
43118;SDS011;28729;49.838;8.650;2024-03-06T03:15:20;18.00;;;7.22;;
43118;SDS011;28729;49.838;8.650;2024-03-06T03:19:26;18.67;;;6.97;;
43118;SDS011;28729;49.838;8.650;2024-03-06T03:23:30;17.33;;;7.70;;
43118;SDS011;28729;49.838;8.650;2024-03-06T03:27:32;16.23;;;7.15;;
43118;SDS011;28729;49.838;8.650;2024-03-06T03:31:36;18.27;;;7.53;;
43118;SDS011;28729;49.838;8.650;2024-03-06T03:35:41;17.05;;;7.10;;
43118;SDS011;28729;49.838;8.650;2024-03-06T03:39:45;12.82;;;7.07;;
43118;SDS011;28729;49.838;8.650;2024-03-06T03:43:48;17.63;;;7.50;;
43118;SDS011;28729;49.838;8.650;2024-03-06T03:47:50;13.43;;;6.43;;
43118;SDS011;28729;49.838;8.650;2024-03-06T03:51:54;12.57;;;6.72;;
43118;SDS011;28729;49.838;8.650;2024-03-06T03:59:58;15.13;;;5.95;;
43118;SDS011;28729;49.838;8.650;2024-03-06T04:04:01;19.60;;;7.25;;
43118;SDS011;28729;49.838;8.650;2024-03-06T04:08:03;13.25;;;7.15;;
43118;SDS011;28729;49.838;8.650;2024-03-06T04:12:08;11.25;;;6.07;;
43118;SDS011;28729;49.838;8.650;2024-03-06T04:16:10;14.43;;;6.68;;
43118;SDS011;28729;49.838;8.650;2024-03-06T04:20:11;10.65;;;5.85;;
43118;SDS011;28729;49.838;8.650;2024-03-06T04:28:16;9.45;;;5.32;;
43118;SDS011;28729;49.838;8.650;2024-03-06T04:32:18;11.10;;;5.82;;
43118;SDS011;28729;49.838;8.650;2024-03-06T04:36:23;11.15;;;5.60;;
43118;SDS011;28729;49.838;8.650;2024-03-06T04:40:25;10.88;;;5.97;;
43118;SDS011;28729;49.838;8.650;2024-03-06T04:44:27;10.40;;;4.97;;
43118;SDS011;28729;49.838;8.650;2024-03-06T04:48:29;8.82;;;5.13;;
43118;SDS011;28729;49.838;8.650;2024-03-06T04:52:31;8.75;;;5.25;;
43118;SDS011;28729;49.838;8.650;2024-03-06T04:56:33;10.80;;;6.03;;
43118;SDS011;28729;49.838;8.650;2024-03-06T05:00:35;9.00;;;5.50;;
43118;SDS011;28729;49.838;8.650;2024-03-06T05:04:38;10.68;;;5.68;;
43118;SDS011;28729;49.838;8.650;2024-03-06T05:08:58;12.20;;;6.07;;
43118;SDS011;28729;49.838;8.650;2024-03-06T05:13:16;9.15;;;5.05;;
43118;SDS011;28729;49.838;8.650;2024-03-06T05:17:34;9.95;;;5.85;;
43118;SDS011;28729;49.838;8.650;2024-03-06T05:21:52;17.50;;;7.13;;
43118;SDS011;28729;49.838;8.650;2024-03-06T05:26:08;11.35;;;5.35;;
43118;SDS011;28729;49.838;8.650;2024-03-06T05:30:23;13.68;;;7.03;;
43118;SDS011;28729;49.838;8.650;2024-03-06T05:39:06;13.32;;;7.45;;
43118;SDS011;28729;49.838;8.650;2024-03-06T05:43:40;13.77;;;7.15;;
43118;SDS011;28729;49.838;8.650;2024-03-06T05:47:56;13.38;;;7.60;;
43118;SDS011;28729;49.838;8.650;2024-03-06T05:52:13;14.25;;;6.95;;
43118;SDS011;28729;49.838;8.650;2024-03-06T05:56:29;14.68;;;6.20;;
43118;SDS011;28729;49.838;8.650;2024-03-06T06:00:45;14.10;;;6.47;;
43118;SDS011;28729;49.838;8.650;2024-03-06T06:09:24;13.02;;;6.82;;
43118;SDS011;28729;49.838;8.650;2024-03-06T06:13:27;15.60;;;7.30;;
43118;SDS011;28729;49.838;8.650;2024-03-06T06:17:29;13.60;;;7.20;;
43118;SDS011;28729;49.838;8.650;2024-03-06T06:21:33;17.98;;;7.53;;
43118;SDS011;28729;49.838;8.650;2024-03-06T06:25:37;15.40;;;7.45;;
43118;SDS011;28729;49.838;8.650;2024-03-06T06:29:47;14.18;;;7.35;;
43118;SDS011;28729;49.838;8.650;2024-03-06T06:33:49;15.05;;;7.97;;
43118;SDS011;28729;49.838;8.650;2024-03-06T06:37:51;13.03;;;7.27;;
43118;SDS011;28729;49.838;8.650;2024-03-06T06:41:53;12.13;;;6.90;;
43118;SDS011;28729;49.838;8.650;2024-03-06T06:50:07;17.35;;;7.40;;
43118;SDS011;28729;49.838;8.650;2024-03-06T06:54:11;14.88;;;8.05;;
43118;SDS011;28729;49.838;8.650;2024-03-06T06:58:12;14.60;;;7.50;;
43118;SDS011;28729;49.838;8.650;2024-03-06T07:02:14;17.65;;;8.57;;
43118;SDS011;28729;49.838;8.650;2024-03-06T07:06:16;19.77;;;10.45;;
43118;SDS011;28729;49.838;8.650;2024-03-06T07:10:18;16.85;;;8.88;;
43118;SDS011;28729;49.838;8.650;2024-03-06T07:14:20;16.85;;;8.55;;
43118;SDS011;28729;49.838;8.650;2024-03-06T07:18:22;14.68;;;8.43;;
43118;SDS011;28729;49.838;8.650;2024-03-06T07:22:24;16.87;;;8.80;;
43118;SDS011;28729;49.838;8.650;2024-03-06T07:26:28;16.02;;;8.63;;
43118;SDS011;28729;49.838;8.650;2024-03-06T07:30:32;14.73;;;8.38;;
43118;SDS011;28729;49.838;8.650;2024-03-06T07:34:35;13.32;;;7.32;;
43118;SDS011;28729;49.838;8.650;2024-03-06T07:38:38;11.43;;;6.43;;
43118;SDS011;28729;49.838;8.650;2024-03-06T07:42:41;8.65;;;5.28;;
43118;SDS011;28729;49.838;8.650;2024-03-06T07:46:44;10.40;;;5.28;;
43118;SDS011;28729;49.838;8.650;2024-03-06T07:50:50;12.60;;;5.25;;
43118;SDS011;28729;49.838;8.650;2024-03-06T07:54:56;7.85;;;4.43;;
43118;SDS011;28729;49.838;8.650;2024-03-06T07:58:59;12.70;;;6.82;;
43118;SDS011;28729;49.838;8.650;2024-03-06T08:03:02;10.20;;;6.05;;
43118;SDS011;28729;49.838;8.650;2024-03-06T08:07:05;11.47;;;6.17;;
43118;SDS011;28729;49.838;8.650;2024-03-06T08:11:13;10.73;;;5.82;;
43118;SDS011;28729;49.838;8.650;2024-03-06T08:15:16;9.60;;;6.40;;
43118;SDS011;28729;49.838;8.650;2024-03-06T08:19:19;13.95;;;6.32;;
43118;SDS011;28729;49.838;8.650;2024-03-06T08:23:23;10.73;;;6.18;;
43118;SDS011;28729;49.838;8.650;2024-03-06T08:27:26;10.00;;;6.97;;
43118;SDS011;28729;49.838;8.650;2024-03-06T08:31:35;17.23;;;7.40;;
43118;SDS011;28729;49.838;8.650;2024-03-06T08:35:37;11.20;;;7.37;;
43118;SDS011;28729;49.838;8.650;2024-03-06T08:39:41;12.75;;;7.15;;
43118;SDS011;28729;49.838;8.650;2024-03-06T08:47:54;13.95;;;6.68;;
43118;SDS011;28729;49.838;8.650;2024-03-06T09:00:28;14.93;;;8.43;;
43118;SDS011;28729;49.838;8.650;2024-03-06T09:04:31;17.60;;;9.32;;
43118;SDS011;28729;49.838;8.650;2024-03-06T09:08:35;19.23;;;10.00;;
43118;SDS011;28729;49.838;8.650;2024-03-06T09:12:38;19.23;;;9.55;;
43118;SDS011;28729;49.838;8.650;2024-03-06T09:16:40;21.13;;;11.75;;
43118;SDS011;28729;49.838;8.650;2024-03-06T09:21:03;24.92;;;11.98;;
43118;SDS011;28729;49.838;8.650;2024-03-06T09:25:05;23.20;;;12.23;;
43118;SDS011;28729;49.838;8.650;2024-03-06T09:29:09;24.67;;;12.55;;
43118;SDS011;28729;49.838;8.650;2024-03-06T09:33:12;23.77;;;12.05;;
43118;SDS011;28729;49.838;8.650;2024-03-06T09:37:15;33.78;;;17.75;;
43118;SDS011;28729;49.838;8.650;2024-03-06T09:41:17;24.80;;;12.85;;
43118;SDS011;28729;49.838;8.650;2024-03-06T09:45:19;21.07;;;12.63;;
43118;SDS011;28729;49.838;8.650;2024-03-06T09:49:24;23.85;;;12.45;;
43118;SDS011;28729;49.838;8.650;2024-03-06T09:53:26;22.88;;;12.45;;
43118;SDS011;28729;49.838;8.650;2024-03-06T09:57:30;22.23;;;11.85;;
43118;SDS011;28729;49.838;8.650;2024-03-06T10:01:32;23.95;;;12.35;;
43118;SDS011;28729;49.838;8.650;2024-03-06T10:05:57;22.97;;;12.80;;
43118;SDS011;28729;49.838;8.650;2024-03-06T10:10:06;24.00;;;12.50;;
43118;SDS011;28729;49.838;8.650;2024-03-06T10:14:11;23.23;;;12.25;;
43118;SDS011;28729;49.838;8.650;2024-03-06T10:18:17;24.08;;;13.05;;
43118;SDS011;28729;49.838;8.650;2024-03-06T10:22:21;25.23;;;12.60;;
43118;SDS011;28729;49.838;8.650;2024-03-06T10:26:33;19.90;;;11.47;;
43118;SDS011;28729;49.838;8.650;2024-03-06T10:31:06;21.20;;;11.93;;
43118;SDS011;28729;49.838;8.650;2024-03-06T10:35:17;22.25;;;11.45;;
43118;SDS011;28729;49.838;8.650;2024-03-06T10:39:37;21.52;;;11.68;;
43118;SDS011;28729;49.838;8.650;2024-03-06T10:44:07;22.77;;;12.15;;
43118;SDS011;28729;49.838;8.650;2024-03-06T10:48:18;22.70;;;12.45;;
43118;SDS011;28729;49.838;8.650;2024-03-06T10:52:22;22.45;;;12.07;;
43118;SDS011;28729;49.838;8.650;2024-03-06T10:56:35;23.58;;;12.65;;
43118;SDS011;28729;49.838;8.650;2024-03-06T11:00:44;24.30;;;11.45;;
43118;SDS011;28729;49.838;8.650;2024-03-06T11:05:19;21.17;;;10.95;;
43118;SDS011;28729;49.838;8.650;2024-03-06T11:09:23;18.15;;;9.88;;
43118;SDS011;28729;49.838;8.650;2024-03-06T11:13:33;21.40;;;11.77;;
43118;SDS011;28729;49.838;8.650;2024-03-06T11:17:41;25.05;;;10.15;;
43118;SDS011;28729;49.838;8.650;2024-03-06T11:22:16;22.08;;;11.15;;
43118;SDS011;28729;49.838;8.650;2024-03-06T11:26:19;20.90;;;11.07;;
43118;SDS011;28729;49.838;8.650;2024-03-06T11:31:30;20.60;;;10.27;;
43118;SDS011;28729;49.838;8.650;2024-03-06T11:35:33;21.50;;;12.40;;
43118;SDS011;28729;49.838;8.650;2024-03-06T11:43:44;21.95;;;10.50;;
43118;SDS011;28729;49.838;8.650;2024-03-06T11:48:00;17.90;;;9.27;;
43118;SDS011;28729;49.838;8.650;2024-03-06T11:52:12;18.33;;;10.10;;
43118;SDS011;28729;49.838;8.650;2024-03-06T11:56:14;19.08;;;10.48;;
43118;SDS011;28729;49.838;8.650;2024-03-06T12:04:48;19.77;;;9.60;;
43118;SDS011;28729;49.838;8.650;2024-03-06T12:08:52;20.08;;;11.13;;
43118;SDS011;28729;49.838;8.650;2024-03-06T12:13:03;20.88;;;11.05;;
43118;SDS011;28729;49.838;8.650;2024-03-06T12:17:06;19.70;;;9.85;;
43118;SDS011;28729;49.838;8.650;2024-03-06T12:21:13;18.83;;;10.13;;
43118;SDS011;28729;49.838;8.650;2024-03-06T12:25:18;16.98;;;9.55;;
43118;SDS011;28729;49.838;8.650;2024-03-06T12:29:53;19.35;;;9.60;;
43118;SDS011;28729;49.838;8.650;2024-03-06T12:33:57;17.77;;;9.20;;
43118;SDS011;28729;49.838;8.650;2024-03-06T12:38:13;18.85;;;9.57;;
43118;SDS011;28729;49.838;8.650;2024-03-06T12:42:16;16.92;;;8.60;;
43118;SDS011;28729;49.838;8.650;2024-03-06T12:46:20;17.52;;;8.82;;
43118;SDS011;28729;49.838;8.650;2024-03-06T12:50:26;16.13;;;9.57;;
43118;SDS011;28729;49.838;8.650;2024-03-06T12:54:30;16.48;;;9.38;;
43118;SDS011;28729;49.838;8.650;2024-03-06T12:58:32;16.17;;;9.27;;
43118;SDS011;28729;49.838;8.650;2024-03-06T13:02:35;17.90;;;9.35;;
43118;SDS011;28729;49.838;8.650;2024-03-06T13:06:37;17.63;;;9.23;;
43118;SDS011;28729;49.838;8.650;2024-03-06T13:10:41;18.07;;;9.10;;
43118;SDS011;28729;49.838;8.650;2024-03-06T13:14:43;18.42;;;9.20;;
43118;SDS011;28729;49.838;8.650;2024-03-06T13:22:56;21.50;;;11.05;;
43118;SDS011;28729;49.838;8.650;2024-03-06T13:27:03;22.60;;;11.00;;
43118;SDS011;28729;49.838;8.650;2024-03-06T13:31:06;19.77;;;10.48;;
43118;SDS011;28729;49.838;8.650;2024-03-06T13:35:09;20.50;;;10.75;;
43118;SDS011;28729;49.838;8.650;2024-03-06T13:39:14;29.83;;;13.45;;
43118;SDS011;28729;49.838;8.650;2024-03-06T13:43:16;28.45;;;12.07;;
43118;SDS011;28729;49.838;8.650;2024-03-06T13:47:17;25.67;;;12.25;;
43118;SDS011;28729;49.838;8.650;2024-03-06T13:51:20;25.23;;;12.18;;
43118;SDS011;28729;49.838;8.650;2024-03-06T13:55:23;26.55;;;12.63;;
43118;SDS011;28729;49.838;8.650;2024-03-06T13:59:28;24.48;;;11.90;;
43118;SDS011;28729;49.838;8.650;2024-03-06T14:03:33;24.40;;;12.07;;
43118;SDS011;28729;49.838;8.650;2024-03-06T14:07:35;26.93;;;12.00;;
43118;SDS011;28729;49.838;8.650;2024-03-06T14:11:37;21.87;;;11.50;;
43118;SDS011;28729;49.838;8.650;2024-03-06T14:15:40;23.92;;;11.18;;
43118;SDS011;28729;49.838;8.650;2024-03-06T14:19:42;24.70;;;12.02;;
43118;SDS011;28729;49.838;8.650;2024-03-06T14:23:44;26.20;;;12.33;;
43118;SDS011;28729;49.838;8.650;2024-03-06T14:27:46;21.02;;;11.20;;
43118;SDS011;28729;49.838;8.650;2024-03-06T14:35:52;24.60;;;11.23;;
43118;SDS011;28729;49.838;8.650;2024-03-06T14:39:56;21.60;;;11.40;;
43118;SDS011;28729;49.838;8.650;2024-03-06T14:44:06;22.77;;;11.13;;
43118;SDS011;28729;49.838;8.650;2024-03-06T14:48:08;21.70;;;10.87;;
43118;SDS011;28729;49.838;8.650;2024-03-06T14:52:11;25.10;;;12.30;;
43118;SDS011;28729;49.838;8.650;2024-03-06T14:56:15;19.13;;;10.27;;
43118;SDS011;28729;49.838;8.650;2024-03-06T15:00:17;23.58;;;12.43;;
43118;SDS011;28729;49.838;8.650;2024-03-06T15:04:22;23.95;;;11.57;;
43118;SDS011;28729;49.838;8.650;2024-03-06T15:08:25;21.10;;;10.52;;
43118;SDS011;28729;49.838;8.650;2024-03-06T15:12:31;22.55;;;11.40;;
43118;SDS011;28729;49.838;8.650;2024-03-06T15:16:33;20.45;;;9.95;;
43118;SDS011;28729;49.838;8.650;2024-03-06T15:24:38;22.65;;;10.32;;
43118;SDS011;28729;49.838;8.650;2024-03-06T15:28:41;18.70;;;8.93;;
43118;SDS011;28729;49.838;8.650;2024-03-06T15:32:43;17.73;;;9.77;;
43118;SDS011;28729;49.838;8.650;2024-03-06T15:36:46;18.10;;;9.50;;
43118;SDS011;28729;49.838;8.650;2024-03-06T15:40:54;19.35;;;8.40;;
43118;SDS011;28729;49.838;8.650;2024-03-06T15:44:57;18.60;;;9.23;;
43118;SDS011;28729;49.838;8.650;2024-03-06T15:49:02;20.30;;;10.80;;
43118;SDS011;28729;49.838;8.650;2024-03-06T15:53:22;21.53;;;10.60;;
43118;SDS011;28729;49.838;8.650;2024-03-06T15:57:49;23.02;;;10.75;;
43118;SDS011;28729;49.838;8.650;2024-03-06T16:01:51;19.33;;;10.57;;
43118;SDS011;28729;49.838;8.650;2024-03-06T16:05:56;21.35;;;10.70;;
43118;SDS011;28729;49.838;8.650;2024-03-06T16:10:13;20.15;;;9.38;;
43118;SDS011;28729;49.838;8.650;2024-03-06T16:14:15;25.40;;;11.32;;
43118;SDS011;28729;49.838;8.650;2024-03-06T16:18:17;22.77;;;11.77;;
43118;SDS011;28729;49.838;8.650;2024-03-06T16:22:19;24.20;;;11.23;;
43118;SDS011;28729;49.838;8.650;2024-03-06T16:26:21;20.67;;;10.10;;
43118;SDS011;28729;49.838;8.650;2024-03-06T16:30:23;22.67;;;11.37;;
43118;SDS011;28729;49.838;8.650;2024-03-06T16:34:25;26.45;;;12.10;;
43118;SDS011;28729;49.838;8.650;2024-03-06T16:38:27;20.30;;;9.87;;
43118;SDS011;28729;49.838;8.650;2024-03-06T16:42:29;23.20;;;10.48;;
43118;SDS011;28729;49.838;8.650;2024-03-06T16:46:32;22.77;;;10.77;;
43118;SDS011;28729;49.838;8.650;2024-03-06T16:50:35;21.83;;;10.68;;
43118;SDS011;28729;49.838;8.650;2024-03-06T16:54:38;21.83;;;10.35;;
43118;SDS011;28729;49.838;8.650;2024-03-06T16:58:40;21.17;;;10.77;;
43118;SDS011;28729;49.838;8.650;2024-03-06T17:02:42;25.00;;;12.57;;
43118;SDS011;28729;49.838;8.650;2024-03-06T17:06:44;23.70;;;12.07;;
43118;SDS011;28729;49.838;8.650;2024-03-06T17:10:46;23.73;;;11.18;;
43118;SDS011;28729;49.838;8.650;2024-03-06T17:14:50;23.00;;;11.50;;
43118;SDS011;28729;49.838;8.650;2024-03-06T17:18:52;23.13;;;10.57;;
43118;SDS011;28729;49.838;8.650;2024-03-06T17:22:54;20.88;;;11.23;;
43118;SDS011;28729;49.838;8.650;2024-03-06T17:26:57;24.02;;;12.18;;
43118;SDS011;28729;49.838;8.650;2024-03-06T17:30:59;20.93;;;9.67;;
43118;SDS011;28729;49.838;8.650;2024-03-06T17:35:01;25.67;;;11.90;;
43118;SDS011;28729;49.838;8.650;2024-03-06T17:39:08;22.27;;;10.63;;
43118;SDS011;28729;49.838;8.650;2024-03-06T17:43:11;24.10;;;11.13;;
43118;SDS011;28729;49.838;8.650;2024-03-06T17:47:14;25.35;;;12.52;;
43118;SDS011;28729;49.838;8.650;2024-03-06T17:51:15;34.08;;;16.02;;
43118;SDS011;28729;49.838;8.650;2024-03-06T17:55:18;34.60;;;15.87;;
43118;SDS011;28729;49.838;8.650;2024-03-06T17:59:19;57.05;;;24.58;;
43118;SDS011;28729;49.838;8.650;2024-03-06T18:03:23;58.33;;;26.75;;
43118;SDS011;28729;49.838;8.650;2024-03-06T18:07:26;58.38;;;33.05;;
43118;SDS011;28729;49.838;8.650;2024-03-06T18:11:29;31.00;;;16.50;;
43118;SDS011;28729;49.838;8.650;2024-03-06T18:15:31;23.90;;;13.75;;
43118;SDS011;28729;49.838;8.650;2024-03-06T18:19:33;28.57;;;14.07;;
43118;SDS011;28729;49.838;8.650;2024-03-06T18:23:35;29.23;;;14.07;;
43118;SDS011;28729;49.838;8.650;2024-03-06T18:27:37;30.90;;;12.70;;
43118;SDS011;28729;49.838;8.650;2024-03-06T18:31:39;33.88;;;13.80;;
43118;SDS011;28729;49.838;8.650;2024-03-06T18:35:42;25.77;;;12.67;;
43118;SDS011;28729;49.838;8.650;2024-03-06T18:39:44;28.52;;;13.88;;
43118;SDS011;28729;49.838;8.650;2024-03-06T18:43:47;31.38;;;13.52;;
43118;SDS011;28729;49.838;8.650;2024-03-06T18:47:49;31.00;;;13.90;;
43118;SDS011;28729;49.838;8.650;2024-03-06T18:51:51;29.90;;;13.90;;
43118;SDS011;28729;49.838;8.650;2024-03-06T18:55:52;34.95;;;16.10;;
43118;SDS011;28729;49.838;8.650;2024-03-06T18:59:54;30.25;;;15.27;;
43118;SDS011;28729;49.838;8.650;2024-03-06T19:08:00;34.13;;;15.65;;
43118;SDS011;28729;49.838;8.650;2024-03-06T19:12:02;34.67;;;15.03;;
43118;SDS011;28729;49.838;8.650;2024-03-06T19:16:04;26.33;;;13.10;;
43118;SDS011;28729;49.838;8.650;2024-03-06T19:20:06;28.48;;;14.82;;
43118;SDS011;28729;49.838;8.650;2024-03-06T19:24:08;36.10;;;16.83;;
43118;SDS011;28729;49.838;8.650;2024-03-06T19:28:13;38.85;;;17.23;;
43118;SDS011;28729;49.838;8.650;2024-03-06T19:32:16;35.37;;;16.90;;
43118;SDS011;28729;49.838;8.650;2024-03-06T19:36:20;36.83;;;18.20;;
43118;SDS011;28729;49.838;8.650;2024-03-06T19:40:23;37.00;;;18.83;;
43118;SDS011;28729;49.838;8.650;2024-03-06T19:48:29;36.03;;;17.83;;
43118;SDS011;28729;49.838;8.650;2024-03-06T19:52:31;40.30;;;18.63;;
43118;SDS011;28729;49.838;8.650;2024-03-06T19:56:33;36.72;;;18.67;;
43118;SDS011;28729;49.838;8.650;2024-03-06T20:00:36;65.88;;;30.63;;
43118;SDS011;28729;49.838;8.650;2024-03-06T20:08:40;76.88;;;34.30;;
43118;SDS011;28729;49.838;8.650;2024-03-06T20:12:43;51.42;;;24.73;;
43118;SDS011;28729;49.838;8.650;2024-03-06T20:20:47;38.05;;;17.23;;
43118;SDS011;28729;49.838;8.650;2024-03-06T20:24:49;47.70;;;22.33;;
43118;SDS011;28729;49.838;8.650;2024-03-06T20:28:50;38.80;;;19.00;;
43118;SDS011;28729;49.838;8.650;2024-03-06T20:32:52;28.08;;;12.45;;
43118;SDS011;28729;49.838;8.650;2024-03-06T20:36:54;36.50;;;18.25;;
43118;SDS011;28729;49.838;8.650;2024-03-06T20:40:56;42.58;;;19.25;;
43118;SDS011;28729;49.838;8.650;2024-03-06T20:44:58;38.28;;;19.15;;
43118;SDS011;28729;49.838;8.650;2024-03-06T20:49:00;44.63;;;20.70;;
43118;SDS011;28729;49.838;8.650;2024-03-06T20:53:02;43.80;;;19.70;;
43118;SDS011;28729;49.838;8.650;2024-03-06T20:57:04;45.20;;;19.47;;
43118;SDS011;28729;49.838;8.650;2024-03-06T21:01:06;38.15;;;17.77;;
43118;SDS011;28729;49.838;8.650;2024-03-06T21:05:11;44.28;;;21.02;;
43118;SDS011;28729;49.838;8.650;2024-03-06T21:09:13;44.30;;;20.90;;
43118;SDS011;28729;49.838;8.650;2024-03-06T21:13:16;48.15;;;21.92;;
43118;SDS011;28729;49.838;8.650;2024-03-06T21:17:19;49.85;;;20.55;;
43118;SDS011;28729;49.838;8.650;2024-03-06T21:21:20;43.95;;;21.13;;
43118;SDS011;28729;49.838;8.650;2024-03-06T21:25:22;46.20;;;22.25;;
43118;SDS011;28729;49.838;8.650;2024-03-06T21:33:28;40.83;;;19.90;;
43118;SDS011;28729;49.838;8.650;2024-03-06T21:37:30;51.75;;;23.52;;
43118;SDS011;28729;49.838;8.650;2024-03-06T21:41:33;49.88;;;22.75;;
43118;SDS011;28729;49.838;8.650;2024-03-06T21:45:37;45.20;;;20.75;;
43118;SDS011;28729;49.838;8.650;2024-03-06T21:49:39;47.73;;;23.73;;
43118;SDS011;28729;49.838;8.650;2024-03-06T21:53:41;49.40;;;23.05;;
43118;SDS011;28729;49.838;8.650;2024-03-06T21:57:43;50.45;;;23.90;;
43118;SDS011;28729;49.838;8.650;2024-03-06T22:01:45;42.90;;;22.23;;
43118;SDS011;28729;49.838;8.650;2024-03-06T22:05:49;65.65;;;28.83;;
43118;SDS011;28729;49.838;8.650;2024-03-06T22:09:51;60.90;;;28.53;;
43118;SDS011;28729;49.838;8.650;2024-03-06T22:13:53;51.20;;;22.90;;
43118;SDS011;28729;49.838;8.650;2024-03-06T22:17:58;61.65;;;27.17;;
43118;SDS011;28729;49.838;8.650;2024-03-06T22:26:01;47.55;;;21.75;;
43118;SDS011;28729;49.838;8.650;2024-03-06T22:30:07;52.40;;;24.90;;
43118;SDS011;28729;49.838;8.650;2024-03-06T22:34:11;40.60;;;20.15;;
43118;SDS011;28729;49.838;8.650;2024-03-06T22:38:13;45.50;;;21.02;;
43118;SDS011;28729;49.838;8.650;2024-03-06T22:42:39;51.78;;;23.98;;
43118;SDS011;28729;49.838;8.650;2024-03-06T22:46:44;45.20;;;21.67;;
43118;SDS011;28729;49.838;8.650;2024-03-06T22:50:56;52.75;;;23.20;;
43118;SDS011;28729;49.838;8.650;2024-03-06T22:54:59;45.78;;;22.30;;
43118;SDS011;28729;49.838;8.650;2024-03-06T22:59:03;44.60;;;19.77;;
43118;SDS011;28729;49.838;8.650;2024-03-06T23:03:07;48.35;;;22.48;;
43118;SDS011;28729;49.838;8.650;2024-03-06T23:07:09;52.40;;;22.45;;
43118;SDS011;28729;49.838;8.650;2024-03-06T23:11:12;46.67;;;21.50;;
43118;SDS011;28729;49.838;8.650;2024-03-06T23:15:14;47.58;;;22.20;;
43118;SDS011;28729;49.838;8.650;2024-03-06T23:19:16;42.92;;;20.92;;
43118;SDS011;28729;49.838;8.650;2024-03-06T23:23:24;48.27;;;22.67;;
43118;SDS011;28729;49.838;8.650;2024-03-06T23:27:28;42.13;;;20.50;;
43118;SDS011;28729;49.838;8.650;2024-03-06T23:31:30;47.13;;;22.20;;
43118;SDS011;28729;49.838;8.650;2024-03-06T23:35:31;50.47;;;21.92;;
43118;SDS011;28729;49.838;8.650;2024-03-06T23:39:34;50.72;;;21.38;;
43118;SDS011;28729;49.838;8.650;2024-03-06T23:43:36;50.08;;;22.80;;
43118;SDS011;28729;49.838;8.650;2024-03-06T23:47:38;50.43;;;23.33;;
43118;SDS011;28729;49.838;8.650;2024-03-06T23:51:40;51.35;;;22.67;;
43118;SDS011;28729;49.838;8.650;2024-03-06T23:55:46;50.60;;;22.75;;
43118;SDS011;28729;49.838;8.650;2024-03-06T23:59:49;54.47;;;23.27;;
